createdAt,value
2018-06-21T00:00:44.414Z,7.53
2018-06-21T00:03:12.804Z,5.90
2018-06-21T00:05:41.340Z,6.03
2018-06-21T00:08:09.743Z,5.27
2018-06-21T00:10:38.164Z,6.17
2018-06-21T00:13:06.608Z,5.37
2018-06-21T00:15:35.057Z,9.93
2018-06-21T00:18:03.529Z,5.27
2018-06-21T00:20:31.945Z,6.53
2018-06-21T00:23:00.271Z,6.43
2018-06-21T00:25:28.661Z,7.60
2018-06-21T00:27:57.260Z,5.50
2018-06-21T00:30:25.652Z,6.53
2018-06-21T00:32:54.056Z,5.83
2018-06-21T00:35:22.437Z,6.53
2018-06-21T00:37:50.887Z,7.10
2018-06-21T00:40:19.288Z,7.73
2018-06-21T00:42:47.711Z,8.77
2018-06-21T00:45:22.907Z,9.77
2018-06-21T00:47:51.336Z,10.27
2018-06-21T00:50:19.753Z,9.87
2018-06-21T00:52:48.135Z,9.17
2018-06-21T00:55:26.710Z,11.67
2018-06-21T00:57:55.121Z,8.20
2018-06-21T01:00:23.525Z,10.13
2018-06-21T01:02:51.920Z,7.30
2018-06-21T01:05:20.311Z,9.17
2018-06-21T01:07:48.724Z,9.30
2018-06-21T01:10:17.111Z,9.77
2018-06-21T01:12:45.553Z,6.63
2018-06-21T01:15:14.006Z,11.77
2018-06-21T01:17:42.415Z,6.40
2018-06-21T01:20:10.838Z,8.10
2018-06-21T01:22:39.228Z,6.03
2018-06-21T01:25:07.633Z,10.03
2018-06-21T01:27:36.036Z,10.43
2018-06-21T01:30:04.507Z,8.43
2018-06-21T01:32:32.948Z,7.83
2018-06-21T01:35:01.418Z,8.43
2018-06-21T01:37:29.571Z,9.40
2018-06-21T01:39:57.993Z,8.70
2018-06-21T01:42:26.409Z,10.03
2018-06-21T01:44:54.807Z,10.10
2018-06-21T01:47:23.219Z,11.27
2018-06-21T01:49:51.673Z,11.67
2018-06-21T01:52:20.095Z,13.60
2018-06-21T01:54:48.508Z,10.43
2018-06-21T01:57:16.912Z,10.73
2018-06-21T01:59:45.311Z,10.13
2018-06-21T02:02:13.733Z,9.20
2018-06-21T02:04:42.168Z,9.60
2018-06-21T02:07:10.556Z,8.83
2018-06-21T02:09:39.129Z,9.10
2018-06-21T02:12:07.579Z,9.53
2018-06-21T02:14:35.972Z,7.83
2018-06-21T02:17:04.453Z,9.73
2018-06-21T02:19:32.852Z,10.33
2018-06-21T02:22:01.280Z,10.73
2018-06-21T02:24:29.660Z,10.43
2018-06-21T02:26:58.103Z,10.93
2018-06-21T02:29:26.521Z,9.53
2018-06-21T02:31:54.901Z,10.23
2018-06-21T02:34:23.349Z,11.63
2018-06-21T02:36:51.725Z,14.70
2018-06-21T02:39:20.117Z,8.80
2018-06-21T02:41:48.172Z,9.43
2018-06-21T02:44:16.722Z,11.57
2018-06-21T02:46:45.117Z,9.90
2018-06-21T02:49:13.568Z,12.00
2018-06-21T02:51:42.468Z,9.37
2018-06-21T02:54:10.877Z,12.67
2018-06-21T02:56:39.279Z,13.77
2018-06-21T02:59:07.370Z,11.63
2018-06-21T03:01:35.761Z,12.70
2018-06-21T03:04:04.227Z,10.13
2018-06-21T03:06:32.628Z,10.83
2018-06-21T03:09:01.022Z,13.13
2018-06-21T03:11:29.464Z,11.97
2018-06-21T03:13:57.912Z,10.93
2018-06-21T03:16:26.300Z,12.57
2018-06-21T03:18:54.703Z,11.27
2018-06-21T03:21:23.133Z,13.97
2018-06-21T03:23:51.541Z,11.27
2018-06-21T03:26:20.012Z,11.53
2018-06-21T03:28:48.503Z,13.37
2018-06-21T03:31:16.927Z,13.20
2018-06-21T03:33:45.764Z,10.60
2018-06-21T03:36:14.877Z,12.07
2018-06-21T03:38:43.847Z,13.30
2018-06-21T03:41:12.288Z,12.40
2018-06-21T03:43:40.832Z,13.10
2018-06-21T03:46:09.250Z,11.20
2018-06-21T03:48:37.650Z,10.97
2018-06-21T03:51:06.282Z,10.17
2018-06-21T03:53:35.028Z,12.50
2018-06-21T03:56:03.460Z,12.60
2018-06-21T03:58:31.892Z,10.80
2018-06-21T04:01:00.343Z,10.37
2018-06-21T04:03:28.873Z,11.57
2018-06-21T04:05:57.299Z,9.70
2018-06-21T04:08:25.936Z,9.10
2018-06-21T04:10:54.560Z,11.80
2018-06-21T04:13:23.024Z,11.97
2018-06-21T04:15:51.397Z,10.03
2018-06-21T04:18:28.371Z,10.87
2018-06-21T04:20:56.964Z,9.13
2018-06-21T04:23:25.348Z,9.47
2018-06-21T04:25:53.771Z,8.27
2018-06-21T04:28:22.271Z,9.97
2018-06-21T04:30:51.033Z,8.83
2018-06-21T04:33:19.412Z,9.23
2018-06-21T04:35:47.941Z,8.90
2018-06-21T04:38:19.611Z,6.30
2018-06-21T04:40:47.981Z,8.47
2018-06-21T04:43:16.379Z,9.50
2018-06-21T04:45:44.796Z,8.73
2018-06-21T04:48:13.273Z,10.97
2018-06-21T04:50:41.686Z,9.13
2018-06-21T04:53:10.079Z,12.57
2018-06-21T04:55:38.692Z,9.00
2018-06-21T04:58:08.960Z,10.23
2018-06-21T05:00:38.919Z,9.67
2018-06-21T05:03:08.781Z,7.67
2018-06-21T05:05:37.326Z,9.43
2018-06-21T05:08:08.178Z,11.00
2018-06-21T05:10:36.665Z,12.40
2018-06-21T05:13:05.993Z,15.57
2018-06-21T05:15:34.723Z,12.57
2018-06-21T05:18:04.071Z,14.40
2018-06-21T05:20:32.759Z,13.80
2018-06-21T05:23:01.148Z,17.83
2018-06-21T05:25:29.549Z,18.73
2018-06-21T05:27:57.972Z,19.17
2018-06-21T05:30:26.358Z,22.57
2018-06-21T05:32:54.769Z,20.77
2018-06-21T05:35:23.181Z,19.90
2018-06-21T05:37:51.653Z,19.23
2018-06-21T05:40:30.427Z,18.03
2018-06-21T05:42:59.949Z,18.50
2018-06-21T05:45:28.433Z,16.70
2018-06-21T05:47:58.374Z,19.67
2018-06-21T05:50:27.230Z,15.20
2018-06-21T05:52:56.553Z,13.33
2018-06-21T05:55:25.029Z,14.63
2018-06-21T05:57:53.400Z,14.10
2018-06-21T06:00:22.509Z,14.87
2018-06-21T06:02:51.442Z,16.83
2018-06-21T06:05:20.288Z,13.47
2018-06-21T06:07:48.892Z,15.17
2018-06-21T06:10:17.325Z,14.10
2018-06-21T06:12:45.777Z,13.43
2018-06-21T06:15:13.889Z,16.17
2018-06-21T06:17:42.288Z,17.03
2018-06-21T06:20:10.745Z,15.37
2018-06-21T06:22:39.289Z,17.97
2018-06-21T06:25:07.711Z,21.33
2018-06-21T06:27:36.104Z,22.20
2018-06-21T06:30:05.925Z,25.13
2018-06-21T06:32:34.315Z,21.43
2018-06-21T06:35:02.863Z,25.73
2018-06-21T06:37:31.290Z,21.57
2018-06-21T06:39:59.677Z,24.40
2018-06-21T06:42:28.324Z,24.27
2018-06-21T06:44:56.704Z,26.20
2018-06-21T06:47:26.831Z,29.17
2018-06-21T06:49:55.273Z,29.03
2018-06-21T06:52:23.813Z,28.53
2018-06-21T06:54:52.245Z,32.57
2018-06-21T06:57:20.836Z,28.20
2018-06-21T06:59:49.217Z,27.13
2018-06-21T07:02:17.613Z,24.00
2018-06-21T07:04:46.059Z,26.07
2018-06-21T07:07:14.440Z,21.67
2018-06-21T07:09:42.840Z,23.90
2018-06-21T07:12:11.273Z,20.73
2018-06-21T07:14:39.732Z,23.77
2018-06-21T07:17:08.180Z,23.40
2018-06-21T07:19:36.564Z,22.77
2018-06-21T07:22:05.040Z,19.27
2018-06-21T07:24:33.457Z,21.43
2018-06-21T07:27:01.891Z,21.13
2018-06-21T07:29:30.324Z,21.37
2018-06-21T07:31:58.761Z,24.80
2018-06-21T07:34:27.156Z,22.60
2018-06-21T07:36:55.548Z,18.37
2018-06-21T07:39:24.084Z,17.30
2018-06-21T07:41:52.511Z,18.23
2018-06-21T07:44:20.908Z,15.47
2018-06-21T07:46:49.386Z,19.57
2018-06-21T07:49:17.755Z,17.70
2018-06-21T07:51:46.133Z,16.53
2018-06-21T07:54:14.561Z,15.60
2018-06-21T07:56:43.269Z,17.23
2018-06-21T07:59:11.749Z,18.17
2018-06-21T08:01:40.301Z,18.20
2018-06-21T08:04:09.164Z,19.10
2018-06-21T08:06:37.830Z,13.90
2018-06-21T08:09:10.971Z,15.03
2018-06-21T08:11:39.420Z,13.70
2018-06-21T08:14:08.085Z,13.53
2018-06-21T08:16:36.973Z,11.77
2018-06-21T08:19:05.973Z,11.90
2018-06-21T08:21:34.396Z,13.27
2018-06-21T08:24:02.771Z,10.83
2018-06-21T08:26:31.196Z,10.23
2018-06-21T08:28:59.635Z,9.87
2018-06-21T08:31:28.013Z,9.57
2018-06-21T08:33:57.275Z,9.93
2018-06-21T08:36:25.716Z,8.80
2018-06-21T08:38:54.100Z,9.27
2018-06-21T08:41:22.484Z,9.40
2018-06-21T08:43:50.900Z,10.50
2018-06-21T08:46:19.364Z,6.50
2018-06-21T08:48:47.836Z,7.97
2018-06-21T08:51:16.302Z,6.10
2018-06-21T08:53:44.697Z,6.33
2018-06-21T08:56:13.150Z,10.40
2018-06-21T08:58:41.573Z,9.10
2018-06-21T09:01:09.984Z,9.10
2018-06-21T09:03:38.460Z,6.63
2018-06-21T09:06:06.858Z,4.40
2018-06-21T09:08:35.260Z,9.33
2018-06-21T09:11:03.717Z,6.53
2018-06-21T09:13:34.396Z,7.63
2018-06-21T09:16:03.501Z,7.00
2018-06-21T09:18:31.965Z,7.10
2018-06-21T09:21:00.778Z,5.90
2018-06-21T09:23:29.233Z,6.00
2018-06-21T09:25:57.728Z,5.93
2018-06-21T09:28:26.434Z,6.57
2018-06-21T09:30:54.827Z,5.50
2018-06-21T09:33:23.232Z,8.73
2018-06-21T09:35:51.732Z,10.63
2018-06-21T09:38:25.629Z,7.57
2018-06-21T09:40:59.385Z,13.93
2018-06-21T09:43:33.105Z,8.33
2018-06-21T09:47:07.808Z,9.67
2018-06-21T09:49:36.305Z,8.00
2018-06-21T09:52:05.819Z,8.27
2018-06-21T09:54:34.702Z,11.30
2018-06-21T09:57:03.113Z,5.63
2018-06-21T09:59:31.979Z,6.07
2018-06-21T10:02:00.392Z,9.87
2018-06-21T10:04:28.540Z,4.60
2018-06-21T10:06:57.242Z,7.70
2018-06-21T10:09:25.712Z,7.33
2018-06-21T10:11:54.279Z,6.90
2018-06-21T10:14:23.057Z,8.83
2018-06-21T10:16:52.055Z,8.20
2018-06-21T10:19:20.497Z,6.03
2018-06-21T10:21:48.958Z,7.20
2018-06-21T10:24:17.385Z,11.13
2018-06-21T10:26:45.793Z,4.87
2018-06-21T10:29:14.197Z,6.83
2018-06-21T10:31:42.632Z,7.50
2018-06-21T10:34:11.014Z,7.73
2018-06-21T10:36:39.409Z,6.40
2018-06-21T10:39:10.048Z,7.20
2018-06-21T10:41:38.470Z,9.13
2018-06-21T10:44:06.923Z,7.20
2018-06-21T10:46:35.340Z,6.70
2018-06-21T10:49:03.996Z,11.47
2018-06-21T10:51:32.500Z,8.63
2018-06-21T10:54:00.982Z,8.00
2018-06-21T10:56:29.497Z,10.03
2018-06-21T10:58:57.888Z,11.70
2018-06-21T11:01:26.265Z,7.70
2018-06-21T11:03:54.689Z,8.10
2018-06-21T11:06:23.405Z,11.80
2018-06-21T11:08:51.833Z,6.80
2018-06-21T11:11:20.242Z,9.50
2018-06-21T11:13:48.678Z,7.70
2018-06-21T11:16:17.048Z,9.13
2018-06-21T11:18:45.478Z,19.17
2018-06-21T11:21:13.893Z,7.03
2018-06-21T11:23:42.368Z,6.13
2018-06-21T11:26:10.786Z,7.97
2018-06-21T11:28:39.178Z,8.30
2018-06-21T11:31:07.595Z,5.47
2018-06-21T11:33:36.004Z,6.40
2018-06-21T11:36:04.479Z,7.60
2018-06-21T11:38:32.884Z,6.27
2018-06-21T11:41:01.459Z,5.87
2018-06-21T11:43:29.934Z,11.50
2018-06-21T11:45:58.428Z,7.90
2018-06-21T11:48:26.837Z,9.20
2018-06-21T11:50:55.247Z,7.43
2018-06-21T11:53:23.804Z,9.07
2018-06-21T11:55:52.269Z,7.53
2018-06-21T11:58:20.712Z,7.00
2018-06-21T12:00:49.139Z,5.20
2018-06-21T12:03:17.790Z,8.87
2018-06-21T12:05:46.261Z,13.33
2018-06-21T12:08:14.689Z,7.50
2018-06-21T12:10:43.134Z,7.53
2018-06-21T12:13:11.728Z,11.80
2018-06-21T12:15:40.269Z,8.83
2018-06-21T12:18:08.683Z,7.27
2018-06-21T12:20:37.105Z,10.30
2018-06-21T12:23:05.764Z,5.33
2018-06-21T12:25:34.312Z,4.83
2018-06-21T12:28:02.721Z,6.20
2018-06-21T12:30:31.101Z,9.60
2018-06-21T12:32:59.488Z,8.87
2018-06-21T12:35:27.894Z,10.17
2018-06-21T12:37:56.316Z,7.23
2018-06-21T12:40:24.733Z,7.37
2018-06-21T12:42:53.171Z,6.03
2018-06-21T12:45:21.574Z,5.00
2018-06-21T12:47:49.988Z,5.40
2018-06-21T12:50:18.415Z,8.87
2018-06-21T12:52:46.868Z,4.73
2018-06-21T12:55:15.341Z,6.30
2018-06-21T12:57:43.847Z,7.53
2018-06-21T13:00:12.441Z,6.57
2018-06-21T13:02:40.876Z,8.57
2018-06-21T13:05:09.020Z,7.83
2018-06-21T13:07:37.417Z,10.60
2018-06-21T13:10:17.188Z,6.20
2018-06-21T13:13:02.236Z,5.13
2018-06-21T13:15:30.648Z,5.90
2018-06-21T13:17:59.041Z,9.37
2018-06-21T13:20:27.417Z,5.67
2018-06-21T13:22:55.824Z,6.47
2018-06-21T13:25:24.252Z,5.30
2018-06-21T13:27:52.663Z,5.63
2018-06-21T13:30:21.060Z,5.70
2018-06-21T13:32:49.543Z,7.30
2018-06-21T13:35:18.029Z,5.83
2018-06-21T13:37:46.445Z,13.83
2018-06-21T13:40:14.847Z,8.93
2018-06-21T13:42:43.615Z,6.63
2018-06-21T13:45:12.569Z,7.13
2018-06-21T13:47:41.196Z,9.00
2018-06-21T13:50:09.672Z,8.57
2018-06-21T13:52:37.822Z,7.47
2018-06-21T13:55:06.249Z,7.97
2018-06-21T13:57:34.733Z,6.10
2018-06-21T14:00:03.363Z,10.47
2018-06-21T14:02:31.769Z,6.47
2018-06-21T14:05:00.209Z,8.57
2018-06-21T14:07:28.856Z,7.17
2018-06-21T14:09:57.297Z,7.37
2018-06-21T14:12:25.722Z,7.63
2018-06-21T14:14:54.153Z,8.73
2018-06-21T14:17:22.570Z,6.23
2018-06-21T14:19:51.013Z,5.40
2018-06-21T14:22:19.520Z,6.67
2018-06-21T14:24:48.024Z,9.23
2018-06-21T14:27:16.519Z,10.60
2018-06-21T14:29:44.913Z,8.60
2018-06-21T14:32:13.386Z,19.93
2018-06-21T14:34:41.805Z,9.97
2018-06-21T14:37:10.264Z,8.83
2018-06-21T14:39:38.652Z,10.77
2018-06-21T14:42:07.089Z,10.80
2018-06-21T14:44:35.595Z,10.07
2018-06-21T14:47:04.150Z,7.43
2018-06-21T14:49:32.596Z,6.53
2018-06-21T14:52:01.118Z,6.20
2018-06-21T14:54:29.554Z,8.30
2018-06-21T14:56:58.097Z,5.27
2018-06-21T14:59:26.656Z,10.43
2018-06-21T15:01:55.106Z,12.93
2018-06-21T15:04:24.080Z,9.27
2018-06-21T15:06:52.709Z,5.73
2018-06-21T15:09:21.131Z,6.97
2018-06-21T15:11:49.548Z,6.23
2018-06-21T15:14:18.420Z,5.47
2018-06-21T15:16:46.829Z,7.07
2018-06-21T15:19:15.262Z,7.63
2018-06-21T15:21:43.713Z,9.97
2018-06-21T15:24:12.249Z,10.90
2018-06-21T15:26:40.686Z,7.73
2018-06-21T15:29:09.229Z,7.70
2018-06-21T15:31:37.632Z,7.73
2018-06-21T15:34:06.022Z,7.33
2018-06-21T15:36:34.717Z,8.37
2018-06-21T15:39:13.202Z,5.80
2018-06-21T15:41:41.697Z,9.10
2018-06-21T15:44:10.117Z,10.47
2018-06-21T15:46:38.533Z,7.23
2018-06-21T15:49:07.032Z,8.30
2018-06-21T15:51:35.468Z,5.13
2018-06-21T15:54:03.962Z,7.83
2018-06-21T15:56:32.376Z,5.77
2018-06-21T15:59:00.824Z,8.57
2018-06-21T16:01:29.256Z,7.67
2018-06-21T16:03:57.716Z,7.77
2018-06-21T16:06:26.149Z,4.93
2018-06-21T16:08:54.541Z,5.23
2018-06-21T16:11:23.015Z,5.87
2018-06-21T16:13:51.646Z,6.33
2018-06-21T16:16:21.513Z,9.77
2018-06-21T16:18:50.217Z,7.53
2018-06-21T16:21:19.028Z,6.03
2018-06-21T16:23:47.555Z,5.43
2018-06-21T16:26:16.075Z,5.93
2018-06-21T16:28:44.501Z,6.70
2018-06-21T16:31:12.920Z,7.27
2018-06-21T16:33:41.400Z,4.97
2018-06-21T16:36:09.816Z,5.40
2018-06-21T16:38:37.935Z,6.80
2018-06-21T16:41:06.785Z,8.43
2018-06-21T16:43:35.216Z,10.53
2018-06-21T16:46:03.721Z,6.77
2018-06-21T16:48:32.125Z,4.97
2018-06-21T16:51:00.639Z,6.73
2018-06-21T16:53:28.992Z,6.33
2018-06-21T16:55:57.706Z,7.20
2018-06-21T16:58:26.143Z,12.27
2018-06-21T17:00:54.593Z,13.57
2018-06-21T17:03:23.013Z,5.03
2018-06-21T17:05:52.168Z,6.60
2018-06-21T17:08:20.644Z,6.77
2018-06-21T17:10:49.076Z,7.40
2018-06-21T17:13:17.507Z,5.93
2018-06-21T17:15:46.017Z,9.00
2018-06-21T17:18:14.419Z,9.40
2018-06-21T17:20:42.840Z,6.70
2018-06-21T17:23:11.421Z,6.40
2018-06-21T17:25:39.893Z,6.43
2018-06-21T17:28:08.346Z,7.30
2018-06-21T17:30:36.793Z,6.43
2018-06-21T17:33:05.241Z,8.40
2018-06-21T17:35:33.680Z,8.63
2018-06-21T17:38:02.102Z,5.53
2018-06-21T17:40:30.539Z,8.40
2018-06-21T17:42:58.984Z,8.17
2018-06-21T17:45:27.416Z,8.80
2018-06-21T17:47:55.866Z,8.43
2018-06-21T17:50:24.308Z,5.67
2018-06-21T17:52:52.742Z,4.63
2018-06-21T17:55:21.223Z,3.33
2018-06-21T17:57:49.819Z,7.10
2018-06-21T18:00:18.321Z,7.10
2018-06-21T18:02:46.741Z,4.97
2018-06-21T18:05:15.126Z,5.93
2018-06-21T18:07:43.553Z,4.70
2018-06-21T18:10:12.194Z,7.03
2018-06-21T18:12:40.639Z,6.80
2018-06-21T18:15:11.565Z,6.47
2018-06-21T18:17:40.040Z,6.83
2018-06-21T18:20:09.241Z,3.90
2018-06-21T18:22:37.712Z,6.90
2018-06-21T18:25:06.572Z,5.50
2018-06-21T18:27:35.030Z,7.30
2018-06-21T18:30:03.525Z,6.30
2018-06-21T18:32:31.998Z,8.47
2018-06-21T18:35:00.466Z,6.00
2018-06-21T18:37:28.915Z,5.13
2018-06-21T18:39:57.418Z,5.03
2018-06-21T18:42:25.852Z,9.17
2018-06-21T18:44:54.317Z,9.23
2018-06-21T18:47:22.777Z,5.20
2018-06-21T18:49:51.288Z,6.63
2018-06-21T18:52:19.826Z,7.43
2018-06-21T18:54:48.656Z,6.27
2018-06-21T18:57:17.162Z,8.13
2018-06-21T18:59:45.576Z,6.03
2018-06-21T19:02:14.078Z,12.07
2018-06-21T19:04:42.459Z,6.67
2018-06-21T19:07:16.173Z,11.60
2018-06-21T19:09:49.761Z,7.50
2018-06-21T19:12:18.306Z,7.40
2018-06-21T19:14:46.757Z,6.37
2018-06-21T19:17:15.212Z,10.10
2018-06-21T19:19:43.628Z,6.73
2018-06-21T19:22:12.115Z,5.87
2018-06-21T19:24:40.751Z,10.50
2018-06-21T19:27:09.205Z,8.13
2018-06-21T19:29:37.696Z,8.37
2018-06-21T19:32:06.185Z,6.70
2018-06-21T19:34:34.613Z,7.77
2018-06-21T19:37:03.061Z,6.50
2018-06-21T19:39:31.481Z,5.07
2018-06-21T19:41:59.920Z,8.17
2018-06-21T19:44:28.516Z,6.10
2018-06-21T19:46:56.969Z,6.47
2018-06-21T19:49:25.435Z,8.50
2018-06-21T19:51:53.938Z,5.93
2018-06-21T19:54:22.447Z,8.47
2018-06-21T19:56:50.589Z,8.37
2018-06-21T19:59:19.012Z,6.50
2018-06-21T20:01:47.473Z,6.73
2018-06-21T20:04:15.867Z,5.97
2018-06-21T20:06:44.439Z,13.40
2018-06-21T20:09:13.525Z,10.03
2018-06-21T20:11:41.935Z,10.80
2018-06-21T20:14:10.407Z,8.50
2018-06-21T20:16:39.749Z,8.70
2018-06-21T20:19:18.359Z,14.10
2018-06-21T20:21:46.759Z,12.30
2018-06-21T20:24:15.234Z,11.33
2018-06-21T20:26:44.518Z,13.60
2018-06-21T20:29:18.887Z,10.70
2018-06-21T20:31:47.348Z,8.50
2018-06-21T20:34:15.805Z,7.47
2018-06-21T20:36:44.267Z,11.00
2018-06-21T20:39:12.792Z,8.50
2018-06-21T20:41:41.263Z,9.47
2018-06-21T20:44:09.800Z,11.30
2018-06-21T20:46:38.184Z,8.63
2018-06-21T20:49:08.181Z,12.20
2018-06-21T20:51:36.599Z,9.00
2018-06-21T20:54:05.089Z,9.23
2018-06-21T20:56:33.577Z,13.57
2018-06-21T20:59:02.018Z,7.87
2018-06-21T21:01:30.433Z,9.77
2018-06-21T21:03:59.009Z,14.53
2018-06-21T21:06:27.521Z,9.20
2018-06-21T21:08:55.920Z,8.60
2018-06-21T21:11:24.526Z,7.40
2018-06-21T21:13:52.916Z,9.37
2018-06-21T21:16:21.304Z,11.90
2018-06-21T21:18:49.701Z,11.47
2018-06-21T21:21:18.101Z,9.80
2018-06-21T21:23:46.497Z,12.23
2018-06-21T21:26:14.851Z,12.23
2018-06-21T21:28:43.290Z,6.40
2018-06-21T21:31:11.773Z,11.67
2018-06-21T21:33:40.241Z,6.93
2018-06-21T21:36:08.713Z,8.43
2018-06-21T21:38:37.194Z,8.07
2018-06-21T21:41:05.665Z,9.00
2018-06-21T21:43:34.031Z,9.13
2018-06-21T21:46:02.436Z,7.33
2018-06-21T21:48:30.888Z,8.40
2018-06-21T21:50:59.308Z,10.10
2018-06-21T21:53:27.737Z,6.17
2018-06-21T21:55:56.137Z,11.00
2018-06-21T21:58:24.531Z,7.73
2018-06-21T22:00:54.116Z,6.90
2018-06-21T22:03:22.658Z,7.40
2018-06-21T22:05:50.772Z,8.10
2018-06-21T22:08:19.151Z,11.73
2018-06-21T22:10:48.142Z,8.97
2018-06-21T22:13:17.036Z,8.20
2018-06-21T22:15:45.672Z,8.20
2018-06-21T22:18:14.176Z,7.23
2018-06-21T22:20:42.617Z,6.93
2018-06-21T22:23:10.832Z,8.87
2018-06-21T22:25:39.219Z,8.10
2018-06-21T22:28:07.604Z,4.83
2018-06-21T22:30:36.040Z,10.90
2018-06-21T22:33:04.470Z,10.83
2018-06-21T22:35:32.865Z,6.37
2018-06-21T22:38:01.289Z,10.23
2018-06-21T22:40:29.680Z,5.93
2018-06-21T22:42:58.080Z,10.63
2018-06-21T22:45:26.448Z,13.93
2018-06-21T22:47:54.875Z,10.27
2018-06-21T22:50:23.302Z,10.13
2018-06-21T22:52:51.817Z,9.43
2018-06-21T22:55:20.213Z,9.00
2018-06-21T22:57:48.684Z,9.07
2018-06-21T23:00:17.684Z,11.40
2018-06-21T23:02:46.356Z,10.47
2018-06-21T23:05:15.237Z,11.00
2018-06-21T23:07:43.640Z,8.10
2018-06-21T23:10:12.001Z,11.93
2018-06-21T23:12:40.420Z,8.90
2018-06-21T23:15:08.818Z,9.07
2018-06-21T23:17:37.273Z,9.77
2018-06-21T23:20:05.652Z,9.97
2018-06-21T23:22:34.023Z,9.80
2018-06-21T23:25:02.401Z,10.87
2018-06-21T23:27:30.772Z,11.87
2018-06-21T23:29:59.165Z,8.53
2018-06-21T23:32:27.566Z,7.07
2018-06-21T23:34:55.656Z,11.17
2018-06-21T23:37:24.104Z,8.80
2018-06-21T23:39:52.465Z,7.97
2018-06-21T23:42:20.951Z,8.97
2018-06-21T23:44:49.348Z,8.53
2018-06-21T23:47:17.768Z,10.53
2018-06-21T23:49:46.141Z,11.83
2018-06-21T23:52:14.558Z,13.53
2018-06-21T23:54:42.932Z,6.70
2018-06-21T23:57:11.369Z,6.67
2018-06-21T23:59:39.773Z,7.60
